Time;durP1;ratioP1;P1;durP2;ratioP2;P2;SDS_P1;SDS_P2;PMS_P1;PMS_P2;Temp;Humidity;BMP_temperature;BMP_pressure;BME280_temperature;BME280_humidity;BME280_pressure;Samples;Min_cycle;Max_cycle;Signal;HPM_P1;HPM_P2
2022/05/08 00:01:13;;;;;;;14.73;9.00;;;;;;;-141.50;100.00;63355.56;5085990;28;20481;-81
2022/05/08 00:03:39;;;;;;;19.08;9.40;;;;;;;-141.50;100.00;63355.56;5075261;28;20080;-79
2022/05/08 00:06:10;;;;;;;11.07;7.60;;;;;;;-141.50;100.00;63355.56;5087101;28;20076;-80
2022/05/08 00:08:40;;;;;;;17.85;7.75;;;;;;;-141.50;100.00;63355.56;5091833;28;20432;-79
2022/05/08 00:11:07;;;;;;;12.00;7.45;;;;;;;-141.50;100.00;63355.56;5097864;28;20514;-81
2022/05/08 00:13:35;;;;;;;13.05;7.65;;;;;;;-141.50;100.00;63355.56;5095718;28;20075;-81
2022/05/08 00:16:03;;;;;;;12.75;7.43;;;;;;;-141.50;100.00;63355.56;5114765;28;20121;-79
2022/05/08 00:18:30;;;;;;;12.13;7.38;;;;;;;-141.50;100.00;63355.56;5099867;28;20051;-79
2022/05/08 00:20:56;;;;;;;13.07;7.53;;;;;;;-141.50;100.00;63355.56;5115373;28;20059;-81
2022/05/08 00:23:23;;;;;;;17.25;8.13;;;;;;;-141.50;100.00;63355.56;5115613;28;20067;-79
2022/05/08 00:25:50;;;;;;;13.55;8.40;;;;;;;-141.50;100.00;63355.56;5099375;28;20048;-82
2022/05/08 00:28:16;;;;;;;13.52;8.38;;;;;;;-141.50;100.00;63355.56;5077211;28;20133;-81
2022/05/08 00:30:43;;;;;;;20.23;8.30;;;;;;;-141.50;100.00;63355.56;5093246;28;20125;-82
2022/05/08 00:33:09;;;;;;;12.80;8.00;;;;;;;-141.50;100.00;63355.56;5092922;28;20389;-82
2022/05/08 00:35:36;;;;;;;15.23;7.40;;;;;;;-141.50;100.00;63355.56;5075146;28;20444;-80
2022/05/08 00:38:03;;;;;;;12.65;7.40;;;;;;;-141.50;100.00;63355.56;5093517;28;20443;-79
2022/05/08 00:40:35;;;;;;;12.63;7.97;;;;;;;-141.50;100.00;63355.56;5112563;28;20036;-77
2022/05/08 00:43:31;;;;;;;12.30;8.07;;;;;;;-141.50;100.00;63355.56;5112958;28;20074;-76
2022/05/08 00:46:18;;;;;;;12.68;7.82;;;;;;;-141.50;100.00;63355.56;5097995;28;20055;-80
2022/05/08 00:48:45;;;;;;;14.10;7.77;;;;;;;-141.50;100.00;63355.56;5085566;28;20036;-80
2022/05/08 00:51:13;;;;;;;15.43;8.52;;;;;;;-141.50;100.00;63355.56;5101713;28;20054;-80
2022/05/08 00:53:50;;;;;;;12.15;7.72;;;;;;;-141.50;100.00;63355.56;5092581;28;20052;-79
2022/05/08 00:56:18;;;;;;;15.77;7.25;;;;;;;-141.50;100.00;63355.56;5076430;28;20375;-80
2022/05/08 00:58:48;;;;;;;13.27;8.23;;;;;;;-141.50;100.00;63355.56;5093189;28;20094;-79
2022/05/08 01:01:15;;;;;;;14.95;8.50;;;;;;;-141.50;100.00;63355.56;5074345;28;20464;-77
2022/05/08 01:03:41;;;;;;;14.50;7.88;;;;;;;-141.50;100.00;63355.56;5092246;28;20044;-78
2022/05/08 01:06:14;;;;;;;12.68;7.85;;;;;;;-141.50;100.00;63355.56;5102525;28;20051;-82
2022/05/08 01:08:43;;;;;;;15.30;8.82;;;;;;;-141.50;100.00;63355.56;5095530;28;20056;-80
2022/05/08 01:11:10;;;;;;;15.80;8.27;;;;;;;-141.50;100.00;63355.56;5117838;28;20067;-78
2022/05/08 01:13:38;;;;;;;13.30;8.07;;;;;;;-141.50;100.00;63355.56;5121533;28;20047;-80
2022/05/08 01:16:13;;;;;;;12.52;7.55;;;;;;;-141.50;100.00;63355.56;5102473;28;20572;-78
2022/05/08 01:18:42;;;;;;;15.15;7.88;;;;;;;-141.50;100.00;63355.56;5100252;28;20062;-77
2022/05/08 01:21:12;;;;;;;12.25;8.20;;;;;;;-141.50;100.00;63355.56;5099854;28;20058;-78
2022/05/08 01:23:39;;;;;;;17.77;7.97;;;;;;;-141.50;100.00;63355.56;5118546;28;20051;-80
2022/05/08 01:26:06;;;;;;;16.63;7.97;;;;;;;-141.50;100.00;63355.56;5098544;28;20052;-78
2022/05/08 01:28:34;;;;;;;13.93;8.05;;;;;;;-141.50;100.00;63355.56;5097468;28;20408;-78
2022/05/08 01:31:00;;;;;;;17.02;8.27;;;;;;;-141.50;100.00;63355.56;5099072;28;20048;-77
2022/05/08 01:33:27;;;;;;;15.02;8.85;;;;;;;-141.50;100.00;63355.56;5100405;28;20056;-81
2022/05/08 01:35:56;;;;;;;15.25;8.52;;;;;;;-141.50;100.00;63355.56;5094723;28;20048;-82
2022/05/08 01:38:23;;;;;;;15.73;8.77;;;;;;;-141.50;100.00;63355.56;5093267;28;20051;-81
2022/05/08 01:40:50;;;;;;;17.13;9.20;;;;;;;-141.50;100.00;63355.56;5094110;28;20071;-81
2022/05/08 01:43:17;;;;;;;12.75;8.95;;;;;;;-141.50;100.00;63355.56;5075169;28;20058;-82
2022/05/08 01:45:43;;;;;;;12.45;8.30;;;;;;;-141.50;100.00;63355.56;5076330;28;20117;-82
2022/05/08 01:48:22;;;;;;;14.68;8.60;;;;;;;-141.50;100.00;63355.56;5074839;28;20507;-82
2022/05/08 01:50:50;;;;;;;14.48;8.50;;;;;;;-141.50;100.00;63355.56;5076077;28;20107;-82
2022/05/08 01:53:21;;;;;;;15.95;8.57;;;;;;;-141.50;100.00;63355.56;5093820;28;20105;-83
2022/05/08 01:55:52;;;;;;;12.93;8.20;;;;;;;-141.50;100.00;63355.56;5093900;28;20097;-80
2022/05/08 01:58:19;;;;;;;15.13;9.27;;;;;;;-141.50;100.00;63355.56;5094435;28;20056;-82
2022/05/08 02:00:46;;;;;;;15.27;9.38;;;;;;;-141.50;100.00;63355.56;5094049;28;20044;-81
2022/05/08 02:03:14;;;;;;;19.77;9.77;;;;;;;-141.50;100.00;63355.56;5075729;28;20074;-82
2022/05/08 02:05:42;;;;;;;14.18;9.13;;;;;;;-141.50;100.00;63355.56;5100685;28;20087;-82
2022/05/08 02:08:10;;;;;;;15.35;9.27;;;;;;;-141.50;100.00;63355.56;5093320;28;20117;-82
2022/05/08 02:10:37;;;;;;;13.63;8.70;;;;;;;-141.50;100.00;63355.56;5094028;28;20082;-81
2022/05/08 02:13:04;;;;;;;15.18;9.40;;;;;;;-141.50;100.00;63355.56;5111163;28;20052;-81
2022/05/08 02:15:30;;;;;;;17.70;9.00;;;;;;;-141.50;100.00;63355.56;5093713;28;20447;-82
2022/05/08 02:18:03;;;;;;;13.63;8.90;;;;;;;-141.50;100.00;63355.56;5094267;28;20094;-81
2022/05/08 02:20:30;;;;;;;12.65;9.13;;;;;;;-141.50;100.00;63355.56;5112051;28;20043;-79
2022/05/08 02:22:57;;;;;;;20.98;8.98;;;;;;;-141.50;100.00;63355.56;5094830;28;20097;-79
2022/05/08 02:25:23;;;;;;;17.20;8.82;;;;;;;-141.50;100.00;63355.56;5080115;28;20134;-80
2022/05/08 02:27:51;;;;;;;15.35;9.30;;;;;;;-141.50;100.00;63355.56;5073473;28;20527;-80
2022/05/08 02:30:20;;;;;;;16.33;9.45;;;;;;;-141.50;100.00;63355.56;5073648;28;20125;-80
2022/05/08 02:32:48;;;;;;;19.02;10.57;;;;;;;-141.50;100.00;63355.56;5074481;28;20052;-80
2022/05/08 02:35:14;;;;;;;17.73;9.70;;;;;;;-141.50;100.00;63355.56;5078193;28;20052;-81
2022/05/08 02:37:41;;;;;;;14.18;9.50;;;;;;;-141.50;100.00;63355.56;5095978;28;20052;-83
2022/05/08 02:40:09;;;;;;;14.60;9.15;;;;;;;-141.50;100.00;63355.56;5074434;28;20118;-82
2022/05/08 02:42:38;;;;;;;15.27;9.07;;;;;;;-141.50;100.00;63355.56;5092032;28;20052;-81
2022/05/08 02:45:06;;;;;;;17.85;10.38;;;;;;;-141.50;100.00;63355.56;5074822;28;20105;-78
2022/05/08 02:47:33;;;;;;;17.23;9.93;;;;;;;-141.50;100.00;63355.56;5093386;28;20052;-81
2022/05/08 02:49:59;;;;;;;15.18;8.77;;;;;;;-141.50;100.00;63355.56;5091628;28;20048;-80
2022/05/08 02:52:27;;;;;;;19.60;9.50;;;;;;;-141.50;100.00;63355.56;5093146;28;20127;-81
2022/05/08 02:54:54;;;;;;;14.52;9.25;;;;;;;-141.50;100.00;63355.56;5093183;28;20119;-80
2022/05/08 03:00:07;;;;;;;16.70;10.10;;;;;;;-141.50;100.00;63355.56;5092299;28;20090;-81
2022/05/08 03:02:34;;;;;;;18.23;10.23;;;;;;;-141.50;100.00;63355.56;5091284;28;20078;-81
2022/05/08 03:05:03;;;;;;;14.50;9.50;;;;;;;-141.50;100.00;63355.56;5081875;28;20047;-80
2022/05/08 03:07:29;;;;;;;13.38;9.48;;;;;;;-141.50;100.00;63355.56;5096462;28;20055;-80
2022/05/08 03:09:56;;;;;;;16.33;9.65;;;;;;;-141.50;100.00;63355.56;5098864;28;20154;-82
2022/05/08 03:12:24;;;;;;;17.35;9.85;;;;;;;-141.50;100.00;63355.56;5095482;28;20052;-80
2022/05/08 03:14:51;;;;;;;16.35;10.02;;;;;;;-141.50;100.00;63355.56;5110615;28;20051;-81
2022/05/08 03:17:18;;;;;;;14.00;9.35;;;;;;;-141.50;100.00;63355.56;5109995;28;20516;-80
2022/05/08 03:19:46;;;;;;;15.27;9.30;;;;;;;-141.50;100.00;63355.56;5091966;28;20047;-79
2022/05/08 03:22:12;;;;;;;18.98;10.70;;;;;;;-141.50;100.00;63355.56;5092079;28;20047;-79
2022/05/08 03:24:39;;;;;;;18.38;10.27;;;;;;;-141.50;100.00;63355.56;5086528;28;20056;-79
2022/05/08 03:27:06;;;;;;;19.00;10.50;;;;;;;-141.50;100.00;63355.56;5091166;28;20087;-81
2022/05/08 03:29:33;;;;;;;20.48;10.18;;;;;;;-141.50;100.00;63355.56;5072312;28;20066;-78
2022/05/08 03:31:59;;;;;;;16.23;10.45;;;;;;;-141.50;100.00;63355.56;5072796;28;20561;-80
2022/05/08 03:34:26;;;;;;;16.92;10.32;;;;;;;-141.50;100.00;63355.56;5072918;28;20500;-81
2022/05/08 03:36:52;;;;;;;17.25;10.40;;;;;;;-141.50;100.00;63355.56;5056631;28;20079;-82
2022/05/08 03:39:19;;;;;;;15.20;9.93;;;;;;;-141.50;100.00;63355.56;5074889;28;20155;-82
2022/05/08 03:41:46;;;;;;;17.40;11.32;;;;;;;-141.50;100.00;63355.56;5056700;28;20558;-80
2022/05/08 03:44:12;;;;;;;21.25;10.52;;;;;;;-141.50;100.00;63355.56;5074364;28;20369;-81
2022/05/08 03:46:39;;;;;;;17.08;10.20;;;;;;;-141.50;100.00;63355.56;5075483;28;20171;-82
2022/05/08 03:49:05;;;;;;;18.95;10.68;;;;;;;-141.50;100.00;63355.56;5075789;28;20048;-79
2022/05/08 03:51:32;;;;;;;18.00;10.88;;;;;;;-141.50;100.00;63355.56;5075766;28;20068;-77
2022/05/08 03:53:58;;;;;;;18.80;10.52;;;;;;;-141.50;100.00;63355.56;5076249;28;20113;-80
2022/05/08 03:56:27;;;;;;;14.75;9.85;;;;;;;-141.50;100.00;63355.56;5075748;28;20489;-82
2022/05/08 03:58:54;;;;;;;17.67;10.63;;;;;;;-141.50;100.00;63355.56;5075437;28;20071;-82
2022/05/08 04:01:21;;;;;;;21.45;13.50;;;;;;;-141.50;100.00;63355.56;5077584;28;20139;-78
2022/05/08 04:03:48;;;;;;;20.05;12.15;;;;;;;-141.50;100.00;63355.56;5072204;28;20056;-78
2022/05/08 04:06:14;;;;;;;24.73;14.48;;;;;;;-141.50;100.00;63355.56;5098048;28;20044;-77
2022/05/08 04:08:41;;;;;;;22.30;14.00;;;;;;;-141.50;100.00;63355.56;5120995;28;20523;-77
2022/05/08 04:11:07;;;;;;;21.58;14.13;;;;;;;-141.50;100.00;63355.56;5118124;28;20138;-76
2022/05/08 04:13:34;;;;;;;21.02;14.75;;;;;;;-141.50;100.00;63355.56;5116034;28;20134;-81
2022/05/08 04:16:16;;;;;;;23.33;14.77;;;;;;;-141.50;100.00;63355.56;5112837;28;20048;-80
2022/05/08 04:18:44;;;;;;;24.77;14.77;;;;;;;-141.50;100.00;63355.56;5113366;28;20055;-78
2022/05/08 04:21:10;;;;;;;23.65;14.25;;;;;;;-141.50;100.00;63355.56;5094309;28;20052;-81
2022/05/08 04:26:22;;;;;;;25.07;14.93;;;;;;;-141.50;100.00;63355.56;5074993;28;20091;-82
2022/05/08 04:28:49;;;;;;;22.63;14.10;;;;;;;-141.50;100.00;63355.56;5073369;28;20099;-81
2022/05/08 04:31:15;;;;;;;24.20;15.60;;;;;;;-141.50;100.00;63355.56;5074497;28;20048;-79
2022/05/08 04:33:44;;;;;;;26.42;14.70;;;;;;;-141.50;100.00;63355.56;5073556;28;20048;-82
2022/05/08 04:36:11;;;;;;;23.55;14.43;;;;;;;-141.50;100.00;63355.56;5056516;28;20090;-81
2022/05/08 04:38:38;;;;;;;21.70;14.80;;;;;;;-141.50;100.00;63355.56;5056011;28;20051;-79
2022/05/08 04:41:05;;;;;;;20.65;14.00;;;;;;;-141.50;100.00;63355.56;5055904;28;20506;-81
2022/05/08 04:43:35;;;;;;;23.25;15.20;;;;;;;-141.50;100.00;63355.56;5058911;28;20053;-80
2022/05/08 04:46:01;;;;;;;22.00;14.68;;;;;;;-141.50;100.00;63355.56;5064075;28;20503;-80
2022/05/08 04:48:28;;;;;;;21.88;15.40;;;;;;;-141.50;100.00;63355.56;5084183;28;20433;-79
2022/05/08 04:50:54;;;;;;;26.23;15.32;;;;;;;-141.50;100.00;63355.56;5085368;28;20074;-81
2022/05/08 04:53:21;;;;;;;26.27;16.30;;;;;;;-141.50;100.00;63355.56;5088341;28;20087;-81
2022/05/08 04:55:48;;;;;;;24.08;15.30;;;;;;;-141.50;100.00;63355.56;5068187;28;20075;-82
2022/05/08 04:58:14;;;;;;;22.98;15.27;;;;;;;-141.50;100.00;63355.56;5081401;28;20041;-80
2022/05/08 05:00:41;;;;;;;22.30;15.90;;;;;;;-141.50;100.00;63355.56;5068492;28;20048;-81
2022/05/08 05:03:07;;;;;;;27.02;16.45;;;;;;;-141.50;100.00;63355.56;5064018;28;20041;-82
2022/05/08 05:05:34;;;;;;;27.70;16.75;;;;;;;-141.50;100.00;63355.56;5069096;28;20063;-82
2022/05/08 05:08:01;;;;;;;28.55;17.10;;;;;;;-141.50;100.00;63355.56;5080493;28;20044;-78
2022/05/08 05:10:27;;;;;;;23.98;16.38;;;;;;;-141.50;100.00;63355.56;5066128;28;20060;-79
2022/05/08 05:12:54;;;;;;;27.73;16.83;;;;;;;-141.50;100.00;63355.56;5072010;28;20098;-82
2022/05/08 05:15:21;;;;;;;26.48;16.85;;;;;;;-141.50;100.00;63355.56;5091870;28;20055;-81
2022/05/08 05:17:48;;;;;;;27.90;17.15;;;;;;;-141.50;100.00;63355.56;5091968;28;20141;-80
2022/05/08 05:20:15;;;;;;;26.90;18.00;;;;;;;-141.50;100.00;63355.56;5091331;28;20123;-78
2022/05/08 05:22:42;;;;;;;28.52;17.98;;;;;;;-141.50;100.00;63355.56;5091391;28;20048;-80
2022/05/08 05:25:08;;;;;;;24.42;18.13;;;;;;;-141.50;100.00;63355.56;5087924;28;20468;-81
2022/05/08 05:27:38;;;;;;;25.48;17.50;;;;;;;-141.50;100.00;63355.56;5075737;28;20516;-79
2022/05/08 05:30:05;;;;;;;29.63;18.95;;;;;;;-141.50;100.00;63355.56;5093668;28;20075;-80
2022/05/08 05:32:31;;;;;;;29.90;19.23;;;;;;;-141.50;100.00;63355.56;5091377;28;20151;-81
2022/05/08 05:34:58;;;;;;;29.92;20.17;;;;;;;-141.50;100.00;63355.56;5092786;28;20067;-80
2022/05/08 05:37:24;;;;;;;32.25;20.98;;;;;;;-141.50;100.00;63355.56;5095211;28;20052;-83
2022/05/08 05:39:51;;;;;;;37.22;22.13;;;;;;;-141.50;100.00;63355.56;5065387;28;20285;-81
2022/05/08 05:42:17;;;;;;;31.38;21.52;;;;;;;-141.50;100.00;63355.56;5053530;28;20052;-80
2022/05/08 05:44:44;;;;;;;30.17;21.00;;;;;;;-141.50;100.00;63355.56;5086217;28;20052;-83
2022/05/08 05:49:55;;;;;;;36.50;23.35;;;;;;;-141.50;100.00;63355.56;5052735;28;20091;-80
2022/05/08 05:52:22;;;;;;;39.13;22.52;;;;;;;-141.50;100.00;63355.56;5068459;28;20040;-83
2022/05/08 05:54:49;;;;;;;33.20;23.58;;;;;;;-141.50;100.00;63355.56;5052506;28;20114;-81
2022/05/08 05:57:19;;;;;;;35.33;22.40;;;;;;;-141.50;100.00;63355.56;5070057;28;20512;-80
2022/05/08 05:59:45;;;;;;;33.00;21.95;;;;;;;-141.50;100.00;63355.56;5091516;28;20080;-77
2022/05/08 06:02:12;;;;;;;31.33;22.48;;;;;;;-141.50;100.00;63355.56;5111391;28;20028;-76
2022/05/08 06:04:38;;;;;;;31.52;23.05;;;;;;;-141.50;100.00;63355.56;5086686;28;20036;-77
2022/05/08 06:07:05;;;;;;;31.95;21.70;;;;;;;-141.50;100.00;63355.56;5086923;28;20068;-79
2022/05/08 06:09:31;;;;;;;32.78;21.50;;;;;;;-141.50;100.00;63355.56;5083919;28;20036;-76
2022/05/08 06:11:58;;;;;;;30.10;21.65;;;;;;;-141.50;100.00;63355.56;5068015;28;20032;-77
2022/05/08 06:14:25;;;;;;;34.40;21.45;;;;;;;-141.50;100.00;63355.56;5085518;28;20052;-82
2022/05/08 06:16:51;;;;;;;31.67;21.52;;;;;;;-141.50;100.00;63355.56;5084365;28;20061;-78
2022/05/08 06:19:18;;;;;;;36.05;21.20;;;;;;;-141.50;100.00;63355.56;5087112;28;20063;-81
2022/05/08 06:21:52;;;;;;;29.52;20.55;;;;;;;-141.50;100.00;63355.56;5089336;28;20040;-80
2022/05/08 06:24:18;;;;;;;32.05;21.13;;;;;;;-141.50;100.00;63355.56;5068285;28;20117;-80
2022/05/08 06:26:45;;;;;;;29.92;21.38;;;;;;;-141.50;100.00;63355.56;5069402;28;20056;-87
2022/05/08 06:29:12;;;;;;;31.60;21.65;;;;;;;-141.50;100.00;63355.56;5057387;28;20144;-83
2022/05/08 06:31:39;;;;;;;31.85;20.90;;;;;;;-141.50;100.00;63355.56;5084280;28;20095;-86
2022/05/08 06:34:08;;;;;;;29.52;19.58;;;;;;;-141.50;100.00;63355.56;5058161;28;20480;-82
2022/05/08 06:36:34;;;;;;;30.27;21.98;;;;;;;-141.50;100.00;63355.56;5075232;28;20075;-81
2022/05/08 06:39:01;;;;;;;35.05;23.05;;;;;;;-141.50;100.00;63355.56;5063337;28;20127;-82
2022/05/08 06:41:28;;;;;;;33.33;22.48;;;;;;;-141.50;100.00;63355.56;5080173;28;20135;-81
2022/05/08 06:43:54;;;;;;;30.50;21.23;;;;;;;-141.50;100.00;63355.56;5074758;28;20160;-83
2022/05/08 06:46:21;;;;;;;30.15;20.38;;;;;;;-141.50;100.00;63355.56;5059702;28;20742;-81
2022/05/08 06:48:48;;;;;;;31.58;21.30;;;;;;;-141.50;100.00;63355.56;5080777;28;20150;-79
2022/05/08 06:51:15;;;;;;;30.77;20.73;;;;;;;-141.50;100.00;63355.56;5063043;28;20036;-80
2022/05/08 06:53:43;;;;;;;29.88;19.60;;;;;;;-141.50;100.00;63355.56;5084041;28;20070;-82
2022/05/08 06:56:13;;;;;;;32.70;20.30;;;;;;;-141.50;100.00;63355.56;5078047;28;20051;-83
2022/05/08 07:01:36;;;;;;;27.25;19.52;;;;;;;-141.50;100.00;63355.56;5095855;28;20075;-82
2022/05/08 07:04:04;;;;;;;32.50;20.27;;;;;;;-141.50;100.00;63355.56;5084272;28;20472;-83
2022/05/08 07:06:30;;;;;;;31.50;20.65;;;;;;;-141.50;100.00;63355.56;5065173;28;20098;-83
2022/05/08 07:09:13;;;;;;;32.35;21.17;;;;;;;-141.50;100.00;63355.56;5083508;28;20048;-85
2022/05/08 07:11:41;;;;;;;28.30;21.52;;;;;;;-141.50;100.00;63355.56;5063091;28;20675;-81
2022/05/08 07:14:08;;;;;;;35.08;21.65;;;;;;;-141.50;100.00;63355.56;5060852;28;20070;-81
2022/05/08 07:16:34;;;;;;;31.23;19.65;;;;;;;-141.50;100.00;63355.56;5082305;28;20080;-84
2022/05/08 07:19:01;;;;;;;23.27;17.48;;;;;;;-141.50;100.00;63355.56;5061362;28;20063;-84
2022/05/08 07:21:28;;;;;;;26.35;18.27;;;;;;;-141.50;100.00;63355.56;5080407;28;20555;-82
2022/05/08 07:23:55;;;;;;;28.77;17.42;;;;;;;-141.50;100.00;63355.56;5079666;28;20631;-83
2022/05/08 07:26:22;;;;;;;25.40;17.38;;;;;;;-141.50;100.00;63355.56;5082206;28;20056;-83
2022/05/08 07:28:48;;;;;;;26.98;17.90;;;;;;;-141.50;100.00;63355.56;5081528;28;20143;-81
2022/05/08 07:31:16;;;;;;;26.20;17.83;;;;;;;-141.50;100.00;63355.56;5090602;28;20130;-83
2022/05/08 07:33:43;;;;;;;25.00;17.50;;;;;;;-141.50;100.00;63355.56;5083870;28;20507;-84
2022/05/08 07:36:15;;;;;;;26.08;19.10;;;;;;;-141.50;100.00;63355.56;5082772;28;20459;-84
2022/05/08 07:38:46;;;;;;;27.10;18.70;;;;;;;-141.50;100.00;63355.56;5084988;28;20727;-82
2022/05/08 07:41:16;;;;;;;24.38;17.75;;;;;;;-141.50;100.00;63355.56;5061331;28;20036;-80
2022/05/08 07:43:46;;;;;;;25.38;18.92;;;;;;;-141.50;100.00;63355.56;5081725;28;20079;-83
2022/05/08 07:46:14;;;;;;;26.48;18.52;;;;;;;-141.50;100.00;63355.56;5077270;28;20061;-81
2022/05/08 07:48:45;;;;;;;29.67;18.85;;;;;;;-141.50;100.00;63355.56;5079114;28;20044;-83
2022/05/08 07:51:12;;;;;;;29.77;19.40;;;;;;;-141.50;100.00;63355.56;5054888;28;20063;-83
2022/05/08 07:53:38;;;;;;;32.92;20.58;;;;;;;-141.50;100.00;63355.56;5074549;28;20087;-84
2022/05/08 07:56:05;;;;;;;29.33;21.10;;;;;;;-141.50;100.00;63355.56;5057859;28;20064;-81
2022/05/08 07:58:32;;;;;;;28.25;20.67;;;;;;;-141.50;100.00;63355.56;5056959;28;20064;-83
2022/05/08 08:01:04;;;;;;;32.40;22.17;;;;;;;-141.50;100.00;63355.56;5074058;28;20088;-80
2022/05/08 08:03:32;;;;;;;29.73;20.98;;;;;;;-141.50;100.00;63355.56;5075642;28;20169;-83
2022/05/08 08:06:02;;;;;;;28.85;20.25;;;;;;;-141.50;100.00;63355.56;5091231;28;20051;-84
2022/05/08 08:08:35;;;;;;;26.45;18.73;;;;;;;-141.50;100.00;63355.56;5072359;28;20052;-77
2022/05/08 08:11:04;;;;;;;24.77;18.17;;;;;;;-141.50;100.00;63355.56;5050391;28;20057;-82
2022/05/08 08:13:32;;;;;;;27.63;19.30;;;;;;;-141.50;100.00;63355.56;5074421;28;20052;-84
2022/05/08 08:16:00;;;;;;;24.63;19.02;;;;;;;-141.50;100.00;63355.56;5081003;28;20075;-81
2022/05/08 08:18:28;;;;;;;24.33;19.02;;;;;;;-141.50;100.00;63355.56;5092684;28;20066;-83
2022/05/08 08:20:55;;;;;;;29.45;19.15;;;;;;;-141.50;100.00;63355.56;5072840;28;20058;-82
2022/05/08 08:23:23;;;;;;;23.35;17.15;;;;;;;-141.50;100.00;63355.56;5093074;28;20521;-83
2022/05/08 08:25:51;;;;;;;21.63;15.50;;;;;;;-141.50;100.00;63355.56;5084776;28;20044;-79
2022/05/08 08:28:17;;;;;;;23.95;14.77;;;;;;;-141.50;100.00;63355.56;5086906;28;20052;-78
2022/05/08 08:30:44;;;;;;;19.83;13.88;;;;;;;-141.50;100.00;63355.56;5084852;28;20064;-78
2022/05/08 08:33:10;;;;;;;20.98;14.30;;;;;;;-141.50;100.00;63355.56;5094977;28;20052;-77
2022/05/08 08:35:39;;;;;;;23.48;15.13;;;;;;;-141.50;100.00;63355.56;5091147;28;20056;-78
2022/05/08 08:38:08;;;;;;;24.02;14.57;;;;;;;-141.50;100.00;63355.56;5088307;28;20052;-76
2022/05/08 08:40:42;;;;;;;22.38;14.65;;;;;;;-141.50;100.00;63355.56;5068074;28;20048;-77
2022/05/08 08:43:09;;;;;;;23.65;14.18;;;;;;;-141.50;100.00;63355.56;5070971;28;20083;-81
2022/05/08 08:48:31;;;;;;;16.55;13.60;;;;;;;-141.50;100.00;63355.56;5090617;28;20091;-75
2022/05/08 08:50:59;;;;;;;21.13;13.43;;;;;;;-141.50;100.00;63355.56;5088182;28;20079;-73
2022/05/08 08:53:27;;;;;;;18.58;13.18;;;;;;;-141.50;100.00;63355.56;5076677;28;20336;-81
2022/05/08 08:55:54;;;;;;;24.50;12.07;;;;;;;-141.50;100.00;63355.56;5076445;28;20133;-78
2022/05/08 08:58:21;;;;;;;19.25;12.93;;;;;;;-141.50;100.00;63355.56;5070651;28;20144;-81
2022/05/08 09:00:49;;;;;;;90.20;15.07;;;;;;;-141.50;100.00;63355.56;5071769;28;20057;-81
2022/05/08 09:03:28;;;;;;;441.20;24.00;;;;;;;-141.50;100.00;63355.56;5051916;28;20052;-80
2022/05/08 09:05:57;;;;;;;23.48;12.20;;;;;;;-141.50;100.00;63355.56;5075496;28;20222;-80
2022/05/08 09:08:28;;;;;;;18.40;12.55;;;;;;;-141.50;100.00;63355.56;5110311;28;20132;-83
2022/05/08 09:10:58;;;;;;;17.63;12.30;;;;;;;-141.50;100.00;63355.56;5083356;28;20143;-83
2022/05/08 09:13:26;;;;;;;20.52;12.77;;;;;;;-141.50;100.00;63355.56;5081054;28;20127;-82
2022/05/08 09:16:02;;;;;;;17.50;12.00;;;;;;;-141.50;100.00;63355.56;5080932;28;20091;-81
2022/05/08 09:18:29;;;;;;;21.42;12.57;;;;;;;-141.50;100.00;63355.56;5061352;28;20060;-80
2022/05/08 09:21:54;;;;;;;16.73;12.48;;;;;;;-141.50;100.00;63355.56;5080235;28;20069;-81
2022/05/08 09:23:45;;;;;;;19.30;11.82;;;;;;;-141.50;100.00;63355.56;5078885;28;20048;-81
2022/05/08 09:26:13;;;;;;;18.05;12.13;;;;;;;-141.50;100.00;63355.56;5082710;28;20146;-80
2022/05/08 09:28:43;;;;;;;17.35;11.88;;;;;;;-141.50;100.00;63355.56;5069389;28;20048;-83
2022/05/08 09:31:11;;;;;;;15.30;11.75;;;;;;;-141.50;100.00;63355.56;5080035;28;20059;-82
2022/05/08 09:34:01;;;;;;;16.40;11.38;;;;;;;-141.50;100.00;63355.56;5080970;28;20052;-80
2022/05/08 09:36:27;;;;;;;17.38;11.57;;;;;;;-141.50;100.00;63355.56;5082967;28;20126;-81
2022/05/08 09:38:56;;;;;;;18.17;12.23;;;;;;;-141.50;100.00;63355.56;5076549;28;20103;-82
2022/05/08 09:41:30;;;;;;;17.40;12.50;;;;;;;-141.50;100.00;63355.56;5081492;28;20455;-81
2022/05/08 09:44:13;;;;;;;15.05;11.30;;;;;;;-141.50;100.00;63355.56;5073173;28;20114;-78
2022/05/08 09:46:44;;;;;;;16.13;11.00;;;;;;;-141.50;100.00;63355.56;5087462;28;20082;-80
2022/05/08 09:49:19;;;;;;;14.38;11.38;;;;;;;-141.50;100.00;63355.56;5086980;28;20050;-82
2022/05/08 09:51:47;;;;;;;15.82;11.50;;;;;;;-141.50;100.00;63355.56;5089226;28;20114;-80
2022/05/08 09:54:16;;;;;;;14.68;11.27;;;;;;;-141.50;100.00;63355.56;5088324;28;20055;-83
2022/05/08 09:56:44;;;;;;;14.43;10.93;;;;;;;-141.50;100.00;63355.56;5088973;28;20109;-80
2022/05/08 09:59:11;;;;;;;17.85;11.43;;;;;;;-141.50;100.00;63355.56;5083341;28;20425;-79
2022/05/08 10:01:39;;;;;;;14.85;10.85;;;;;;;-141.50;100.00;63355.56;5049631;28;20075;-78
2022/05/08 10:04:05;;;;;;;14.52;10.73;;;;;;;-141.50;100.00;63355.56;5079657;28;20537;-80
2022/05/08 10:06:37;;;;;;;18.83;10.38;;;;;;;-141.50;100.00;63355.56;5059404;28;20510;-81
2022/05/08 10:14:36;;;;;;;15.18;10.10;;;;;;;-141.50;100.00;63355.56;5076903;28;20052;-77
2022/05/08 10:17:03;;;;;;;15.23;9.77;;;;;;;-141.50;100.00;63355.56;5082466;28;20048;-79
2022/05/08 10:19:30;;;;;;;13.77;9.73;;;;;;;-141.50;100.00;63355.56;5062298;28;20101;-81
2022/05/08 10:21:57;;;;;;;16.23;10.32;;;;;;;-141.50;100.00;63355.56;5090021;28;20654;-85
2022/05/08 10:24:32;;;;;;;16.83;10.10;;;;;;;-141.50;100.00;63355.56;5089223;28;20060;-77
2022/05/08 10:27:27;;;;;;;12.20;9.57;;;;;;;-141.50;100.00;63355.56;5064880;28;20099;-79
2022/05/08 10:29:53;;;;;;;11.02;8.82;;;;;;;-141.50;100.00;63355.56;5088817;28;20048;-82
2022/05/08 10:32:30;;;;;;;12.98;8.70;;;;;;;-141.50;100.00;63355.56;5090473;28;20029;-79
2022/05/08 10:35:19;;;;;;;11.23;8.65;;;;;;;-141.50;100.00;63355.56;5084092;28;20084;-80
2022/05/08 10:37:47;;;;;;;12.60;7.95;;;;;;;-141.50;100.00;63355.56;5066032;28;20069;-79
2022/05/08 10:40:23;;;;;;;11.35;8.25;;;;;;;-141.50;100.00;63355.56;5080177;28;20106;-81
2022/05/08 10:42:56;;;;;;;13.63;7.72;;;;;;;-141.50;100.00;63355.56;5061510;28;20063;-79
2022/05/08 10:45:28;;;;;;;9.15;7.28;;;;;;;-141.50;100.00;63355.56;5084209;28;20086;-81
2022/05/08 10:47:55;;;;;;;12.85;8.00;;;;;;;-141.50;100.00;63355.56;5078410;28;20102;-82
2022/05/08 10:50:21;;;;;;;10.90;7.65;;;;;;;-141.50;100.00;63355.56;5075575;28;20052;-81
2022/05/08 10:52:49;;;;;;;9.93;6.90;;;;;;;-141.50;100.00;63355.56;5071441;28;20281;-78
2022/05/08 10:55:23;;;;;;;10.25;6.82;;;;;;;-141.50;100.00;63355.56;5062417;28;20056;-80
2022/05/08 10:57:51;;;;;;;11.68;7.18;;;;;;;-141.50;100.00;63355.56;5091019;28;20078;-82
2022/05/08 11:00:29;;;;;;;12.73;7.65;;;;;;;-141.50;100.00;63355.56;5093839;28;20478;-81
2022/05/08 11:02:57;;;;;;;16.77;7.72;;;;;;;-141.50;100.00;63355.56;5079136;28;20415;-82
2022/05/08 11:05:32;;;;;;;10.75;7.45;;;;;;;-141.50;100.00;63355.56;5097458;28;20405;-83
2022/05/08 11:08:13;;;;;;;10.52;7.30;;;;;;;-141.50;100.00;63355.56;5081797;28;20076;-82
2022/05/08 11:10:42;;;;;;;11.25;6.93;;;;;;;-141.50;100.00;63355.56;5070708;28;20056;-81
2022/05/08 11:13:18;;;;;;;11.90;8.90;;;;;;;-141.50;100.00;63355.56;5074896;28;20117;-84
2022/05/08 11:15:49;;;;;;;12.18;6.97;;;;;;;-141.50;100.00;63355.56;5073458;28;20049;-83
2022/05/08 11:18:22;;;;;;;7.82;7.00;;;;;;;-141.50;100.00;63355.56;5074447;28;20412;-82
2022/05/08 11:20:59;;;;;;;10.48;6.93;;;;;;;-141.50;100.00;63355.56;5058612;28;20052;-82
2022/05/08 11:23:41;;;;;;;9.13;6.97;;;;;;;-141.50;100.00;63355.56;5070510;28;20481;-80